Wheeler, Texas
Current Conditions -  °F | °C
As of 11:55 AM on Monday 24 Nov 2014 (Local Time) from KHHF Reporting Station
Clear Clear  
Wind Chill: 52°   Ceiling: Unl
Heat Index: 52°   Visibility: NA
Dew Point: 18°   Wind: 10mph
Humidity: 26%   Direction: 280°W
Pressure: 30.02"   Gusts: NA
Location:  35.45°N, 100.27°W
Report Text: KHHF 241755Z AUTO 28009KT CLR 11/M08 A3002 RMK AO2 T01121080 10113 20000 PWINO
Loading
Personal Weather Stations






























Interactive Weather Map New forecast layout! Learn more

10-Day Weather Forecast

Advertisements
Track Severe Weather on mobile